createdAt,value
2019-06-20T00:01:29.770Z,18.82
2019-06-20T00:03:58.282Z,18.80
2019-06-20T00:06:26.704Z,18.79
2019-06-20T00:08:55.140Z,18.75
2019-06-20T00:11:23.569Z,18.71
2019-06-20T00:13:52.004Z,18.71
2019-06-20T00:16:20.432Z,18.68
2019-06-20T00:18:48.870Z,18.65
2019-06-20T00:21:17.296Z,18.63
2019-06-20T00:23:45.736Z,18.59
2019-06-20T00:26:14.234Z,18.59
2019-06-20T00:28:42.683Z,18.56
2019-06-20T00:31:11.128Z,18.57
2019-06-20T00:33:39.549Z,18.54
2019-06-20T00:36:07.999Z,18.59
2019-06-20T00:38:36.435Z,18.58
2019-06-20T00:41:04.898Z,18.59
2019-06-20T00:43:33.322Z,18.60
2019-06-20T00:46:01.754Z,18.63
2019-06-20T00:48:30.203Z,18.63
2019-06-20T00:50:58.769Z,18.64
2019-06-20T00:53:27.314Z,18.66
2019-06-20T00:55:55.757Z,18.67
2019-06-20T00:58:24.172Z,18.68
2019-06-20T01:00:52.682Z,18.71
2019-06-20T01:03:21.211Z,18.70
2019-06-20T01:05:49.631Z,18.72
2019-06-20T01:08:18.260Z,18.70
2019-06-20T01:10:46.745Z,18.70
2019-06-20T01:13:15.179Z,18.67
2019-06-20T01:15:43.615Z,18.66
2019-06-20T01:18:12.047Z,18.64
2019-06-20T01:20:40.490Z,18.63
2019-06-20T01:23:09.074Z,18.61
2019-06-20T01:25:39.346Z,18.58
2019-06-20T01:28:08.529Z,18.56
2019-06-20T01:30:37.156Z,18.53
2019-06-20T01:33:06.233Z,18.49
2019-06-20T01:35:34.665Z,18.47
2019-06-20T01:38:03.466Z,18.45
2019-06-20T01:40:31.896Z,18.42
2019-06-20T01:43:00.334Z,18.39
2019-06-20T01:45:28.766Z,18.33
2019-06-20T01:47:57.197Z,18.30
2019-06-20T01:50:25.709Z,18.27
2019-06-20T01:52:54.158Z,18.25
2019-06-20T01:55:22.676Z,18.24
2019-06-20T01:57:51.181Z,18.23
2019-06-20T02:00:40.632Z,18.22
2019-06-20T02:03:09.141Z,18.19
2019-06-20T02:05:37.577Z,18.17
2019-06-20T02:08:06.084Z,18.15
2019-06-20T02:10:34.592Z,18.13
2019-06-20T02:13:03.042Z,18.10
2019-06-20T02:15:31.480Z,18.09
2019-06-20T02:17:59.919Z,18.05
2019-06-20T02:20:33.721Z,18.04
2019-06-20T02:23:02.420Z,18.03
2019-06-20T02:25:31.077Z,18.03
2019-06-20T02:27:59.602Z,18.03
2019-06-20T02:30:28.276Z,18.03
2019-06-20T02:32:56.711Z,17.99
2019-06-20T02:35:25.214Z,18.00
2019-06-20T02:37:53.914Z,18.00
2019-06-20T02:40:22.798Z,18.00
2019-06-20T02:42:51.303Z,18.02
2019-06-20T02:45:20.121Z,18.02
2019-06-20T02:47:48.581Z,18.03
2019-06-20T02:50:17.745Z,18.06
2019-06-20T02:52:46.191Z,18.05
2019-06-20T02:55:14.969Z,18.11
2019-06-20T02:57:43.423Z,18.09
2019-06-20T03:00:13.494Z,18.10
2019-06-20T03:02:41.932Z,18.14
2019-06-20T03:05:10.918Z,18.14
2019-06-20T03:07:39.383Z,18.17
2019-06-20T03:10:08.356Z,18.17
2019-06-20T03:12:36.793Z,18.17
2019-06-20T03:15:07.180Z,18.17
2019-06-20T03:17:34.883Z,18.16
2019-06-20T03:20:04.620Z,18.46
2019-06-20T03:22:33.120Z,18.26
2019-06-20T03:25:01.579Z,18.25
2019-06-20T03:27:29.993Z,18.22
2019-06-20T03:29:58.433Z,18.24
2019-06-20T03:32:26.876Z,18.24
2019-06-20T03:34:55.308Z,18.23
2019-06-20T03:37:23.752Z,18.26
2019-06-20T03:39:52.323Z,18.27
2019-06-20T03:42:20.785Z,18.26
2019-06-20T03:45:01.754Z,18.25
2019-06-20T03:47:19.430Z,18.27
2019-06-20T03:49:47.877Z,18.29
2019-06-20T03:52:16.414Z,18.27
2019-06-20T03:54:45.297Z,18.29
2019-06-20T03:57:13.784Z,18.31
2019-06-20T03:59:42.276Z,18.36
2019-06-20T04:02:10.749Z,18.37
2019-06-20T04:04:39.187Z,18.36
2019-06-20T04:07:07.622Z,18.38
2019-06-20T04:09:36.064Z,18.38
2019-06-20T04:12:04.559Z,18.43
2019-06-20T04:14:33.013Z,18.43
2019-06-20T04:17:01.475Z,18.52
2019-06-20T04:19:29.928Z,18.50
2019-06-20T04:21:58.355Z,18.56
2019-06-20T04:24:28.007Z,18.60
2019-06-20T04:26:56.526Z,18.66
2019-06-20T04:29:24.984Z,18.73
2019-06-20T04:31:53.484Z,18.75
2019-06-20T04:34:22.013Z,18.77
2019-06-20T04:36:50.521Z,18.82
2019-06-20T04:39:19.793Z,18.88
2019-06-20T04:41:48.370Z,18.89
2019-06-20T04:44:16.806Z,18.97
2019-06-20T04:46:50.223Z,18.98
2019-06-20T04:49:19.803Z,19.02
2019-06-20T04:51:48.484Z,19.06
2019-06-20T04:54:17.033Z,19.13
2019-06-20T04:56:45.475Z,19.13
2019-06-20T04:59:13.933Z,19.22
2019-06-20T05:01:42.649Z,19.24
2019-06-20T05:04:11.087Z,19.31
2019-06-20T05:06:44.073Z,19.33
2019-06-20T05:09:12.524Z,19.41
2019-06-20T05:11:40.967Z,19.45
2019-06-20T05:14:09.401Z,19.51
2019-06-20T05:16:37.859Z,19.59
2019-06-20T05:19:06.291Z,19.63
2019-06-20T05:21:34.740Z,19.70
2019-06-20T05:24:03.195Z,19.75
2019-06-20T05:26:31.639Z,19.64
2019-06-20T05:29:00.074Z,19.83
2019-06-20T05:31:29.299Z,19.87
2019-06-20T05:33:57.732Z,19.93
2019-06-20T05:36:26.163Z,19.98
2019-06-20T05:38:54.614Z,20.02
2019-06-20T05:41:23.076Z,20.07
2019-06-20T05:43:51.512Z,20.10
2019-06-20T05:46:19.948Z,20.20
2019-06-20T05:48:48.386Z,20.32
2019-06-20T05:51:16.814Z,20.37
2019-06-20T05:53:45.251Z,20.38
2019-06-20T05:56:13.698Z,20.45
2019-06-20T05:58:42.220Z,20.46
2019-06-20T06:01:11.857Z,20.48
2019-06-20T06:03:39.551Z,20.47
2019-06-20T06:06:08.022Z,20.84
2019-06-20T06:08:36.457Z,20.51
2019-06-20T06:11:05.329Z,20.40
2019-06-20T06:13:33.797Z,20.42
2019-06-20T06:16:02.228Z,20.40
2019-06-20T06:18:30.661Z,20.34
2019-06-20T06:20:59.106Z,20.19
2019-06-20T06:23:27.542Z,20.36
2019-06-20T06:25:57.559Z,20.28
2019-06-20T06:28:25.988Z,20.36
2019-06-20T06:30:54.432Z,20.34
2019-06-20T06:33:22.877Z,20.33
2019-06-20T06:35:51.308Z,20.26
2019-06-20T06:38:21.915Z,20.26
2019-06-20T06:40:49.915Z,20.23
2019-06-20T06:43:18.377Z,20.27
2019-06-20T06:45:46.822Z,20.23
2019-06-20T06:48:15.435Z,20.13
2019-06-20T06:50:43.938Z,20.11
2019-06-20T06:53:12.388Z,19.98
2019-06-20T06:55:41.109Z,20.00
2019-06-20T06:58:09.555Z,19.96
2019-06-20T07:00:38.028Z,19.94
2019-06-20T07:03:07.450Z,19.90
2019-06-20T07:05:35.900Z,19.90
2019-06-20T07:08:04.596Z,19.90
2019-06-20T07:10:33.037Z,19.88
2019-06-20T07:13:01.469Z,19.88
2019-06-20T07:15:29.919Z,19.85
2019-06-20T07:17:58.371Z,19.86
2019-06-20T07:20:26.802Z,19.89
2019-06-20T07:22:55.257Z,19.89
2019-06-20T07:25:23.751Z,19.94
2019-06-20T07:27:52.525Z,20.00
2019-06-20T07:30:21.221Z,20.00
2019-06-20T07:32:49.669Z,19.97
2019-06-20T07:35:18.474Z,20.02
2019-06-20T07:37:46.908Z,20.05
2019-06-20T07:40:15.689Z,20.11
2019-06-20T07:42:44.133Z,20.08
2019-06-20T07:45:13.005Z,20.11
2019-06-20T07:47:41.484Z,20.07
2019-06-20T07:50:10.913Z,20.07
2019-06-20T07:52:39.364Z,20.04
2019-06-20T07:55:08.637Z,20.04
2019-06-20T07:57:37.176Z,20.05
2019-06-20T08:00:10.670Z,20.11
2019-06-20T08:02:39.176Z,20.10
2019-06-20T08:05:08.155Z,20.17
2019-06-20T08:07:36.775Z,20.28
2019-06-20T08:10:15.630Z,20.34
2019-06-20T08:12:44.076Z,20.40
2019-06-20T08:15:15.672Z,20.45
2019-06-20T08:17:43.991Z,20.53
2019-06-20T08:20:13.387Z,20.61
2019-06-20T08:22:41.834Z,20.65
2019-06-20T08:25:10.761Z,20.75
2019-06-20T08:27:51.514Z,20.78
2019-06-20T08:30:25.733Z,20.74
2019-06-20T08:32:54.300Z,20.77
2019-06-20T08:35:25.963Z,20.79
2019-06-20T08:37:56.088Z,20.81
2019-06-20T08:40:26.730Z,20.81
2019-06-20T08:42:57.128Z,20.87
2019-06-20T08:45:28.639Z,20.93
2019-06-20T08:47:58.308Z,20.59
2019-06-20T08:50:27.240Z,20.93
2019-06-20T08:52:57.618Z,21.01
2019-06-20T08:55:26.397Z,21.02
2019-06-20T08:57:56.271Z,20.99
2019-06-20T09:00:27.357Z,20.99
2019-06-20T09:02:56.902Z,20.94
2019-06-20T09:05:26.385Z,20.91
2019-06-20T09:07:56.481Z,20.96
2019-06-20T09:10:28.034Z,20.91
2019-06-20T09:12:57.017Z,20.94
2019-06-20T09:15:25.639Z,20.94
2019-06-20T09:17:55.204Z,20.90
2019-06-20T09:20:24.250Z,20.91
2019-06-20T09:22:54.009Z,21.06
2019-06-20T09:25:22.276Z,21.12
2019-06-20T09:27:52.688Z,21.58
2019-06-20T09:30:21.144Z,21.38
2019-06-20T09:32:49.722Z,21.43
2019-06-20T09:35:18.328Z,21.56
2019-06-20T09:37:46.937Z,21.55
2019-06-20T09:40:17.009Z,21.54
2019-06-20T09:42:45.469Z,21.55
2019-06-20T09:45:15.523Z,21.51
2019-06-20T09:47:43.969Z,21.52
2019-06-20T09:50:13.966Z,21.45
2019-06-20T09:52:42.404Z,21.33
2019-06-20T09:55:11.286Z,21.41
2019-06-20T09:57:39.727Z,21.40
2019-06-20T10:00:16.764Z,21.36
2019-06-20T10:02:47.144Z,21.39
2019-06-20T10:05:14.994Z,21.38
2019-06-20T10:07:43.487Z,21.81
2019-06-20T10:10:12.927Z,21.49
2019-06-20T10:12:41.577Z,21.59
2019-06-20T10:15:21.821Z,21.71
2019-06-20T10:17:50.063Z,21.77
2019-06-20T10:20:19.206Z,22.27
2019-06-20T10:22:48.543Z,22.05
2019-06-20T10:25:17.521Z,22.13
2019-06-20T10:27:46.629Z,22.25
2019-06-20T10:30:18.283Z,22.22
2019-06-20T10:32:46.823Z,22.23
2019-06-20T10:35:15.773Z,22.43
2019-06-20T10:37:45.588Z,22.55
2019-06-20T10:40:15.342Z,22.73
2019-06-20T10:42:44.968Z,22.88
2019-06-20T10:45:17.563Z,23.14
2019-06-20T10:47:47.291Z,23.32
2019-06-20T10:50:16.858Z,23.46
2019-06-20T10:52:45.327Z,23.57
2019-06-20T10:55:14.112Z,23.74
2019-06-20T10:57:42.931Z,23.83
2019-06-20T11:00:26.776Z,23.87
2019-06-20T11:02:44.980Z,23.95
2019-06-20T11:05:13.833Z,23.93
2019-06-20T11:07:43.760Z,23.91
2019-06-20T11:10:13.496Z,23.82
2019-06-20T11:12:47.976Z,23.83
2019-06-20T11:15:11.666Z,23.68
2019-06-20T11:17:40.453Z,24.26
2019-06-20T11:20:11.335Z,23.74
2019-06-20T11:22:41.517Z,23.70
2019-06-20T11:25:10.546Z,23.70
2019-06-20T11:27:38.980Z,23.74
2019-06-20T11:30:12.829Z,23.85
2019-06-20T11:32:41.298Z,24.03
2019-06-20T11:35:10.372Z,24.20
2019-06-20T11:37:39.663Z,24.26
2019-06-20T11:40:10.178Z,24.30
2019-06-20T11:42:39.937Z,24.37
2019-06-20T11:45:09.056Z,24.25
2019-06-20T11:47:38.261Z,24.26
2019-06-20T11:50:09.143Z,24.19
2019-06-20T11:52:41.000Z,24.09
2019-06-20T11:55:07.496Z,24.01
2019-06-20T11:57:35.874Z,24.53
2019-06-20T12:00:06.662Z,24.09
2019-06-20T12:02:35.123Z,23.99
2019-06-20T12:05:05.133Z,24.06
2019-06-20T12:07:33.647Z,24.09
2019-06-20T12:10:03.937Z,24.14
2019-06-20T12:12:31.646Z,24.29
2019-06-20T12:15:00.027Z,24.90
2019-06-20T12:17:28.473Z,24.71
2019-06-20T12:19:56.923Z,24.85
2019-06-20T12:22:25.359Z,24.94
2019-06-20T12:24:53.842Z,25.10
2019-06-20T12:27:22.425Z,25.20
2019-06-20T12:29:50.870Z,25.40
2019-06-20T12:32:21.166Z,25.46
2019-06-20T12:34:50.116Z,25.53
2019-06-20T12:37:18.714Z,25.54
2019-06-20T12:39:48.612Z,25.47
2019-06-20T12:42:17.215Z,25.07
2019-06-20T12:44:46.025Z,25.15
2019-06-20T12:47:14.596Z,24.81
2019-06-20T12:49:43.802Z,24.85
2019-06-20T12:52:12.256Z,24.67
2019-06-20T12:54:41.378Z,24.58
2019-06-20T12:57:10.527Z,24.52
2019-06-20T12:59:39.453Z,24.47
2019-06-20T13:02:08.567Z,24.47
2019-06-20T13:04:38.293Z,24.99
2019-06-20T13:07:07.214Z,24.63
2019-06-20T13:09:35.668Z,24.64
2019-06-20T13:12:04.189Z,24.75
2019-06-20T13:14:32.631Z,24.77
2019-06-20T13:17:01.136Z,24.69
2019-06-20T13:19:29.588Z,24.82
2019-06-20T13:21:58.113Z,24.86
2019-06-20T13:24:26.559Z,24.95
2019-06-20T13:26:55.004Z,25.07
2019-06-20T13:29:23.451Z,24.90
2019-06-20T13:32:03.592Z,24.95
2019-06-20T13:34:22.080Z,24.82
2019-06-20T13:36:50.514Z,24.70
2019-06-20T13:39:18.961Z,24.60
2019-06-20T13:41:48.051Z,24.50
2019-06-20T13:44:17.631Z,24.49
2019-06-20T13:46:46.541Z,24.45
2019-06-20T13:49:15.060Z,24.48
2019-06-20T13:51:43.492Z,24.67
2019-06-20T13:54:11.948Z,24.75
2019-06-20T13:56:40.407Z,24.88
2019-06-20T13:59:10.250Z,24.89
2019-06-20T14:01:40.166Z,25.02
2019-06-20T14:04:08.908Z,25.10
2019-06-20T14:06:37.343Z,25.15
2019-06-20T14:09:07.145Z,25.20
2019-06-20T14:11:35.820Z,25.41
2019-06-20T14:14:04.831Z,25.49
2019-06-20T14:16:33.270Z,25.55
2019-06-20T14:19:01.763Z,25.50
2019-06-20T14:21:30.179Z,25.46
2019-06-20T14:23:58.626Z,25.37
2019-06-20T14:26:27.059Z,25.44
2019-06-20T14:28:55.785Z,25.47
2019-06-20T14:31:24.375Z,25.61
2019-06-20T14:33:52.872Z,25.66
2019-06-20T14:36:21.303Z,25.80
2019-06-20T14:38:49.740Z,25.69
2019-06-20T14:41:18.211Z,25.74
2019-06-20T14:43:47.801Z,25.72
2019-06-20T14:46:16.377Z,25.74
2019-06-20T14:48:45.571Z,25.63
2019-06-20T14:51:14.991Z,25.55
2019-06-20T14:53:44.420Z,25.48
2019-06-20T14:56:13.581Z,25.56
2019-06-20T14:58:42.022Z,25.57
2019-06-20T15:01:10.453Z,25.64
2019-06-20T15:03:38.896Z,25.69
2019-06-20T15:06:07.353Z,25.69
2019-06-20T15:08:35.902Z,25.58
2019-06-20T15:11:04.361Z,25.57
2019-06-20T15:13:32.795Z,25.41
2019-06-20T15:16:01.226Z,25.29
2019-06-20T15:18:29.724Z,25.19
2019-06-20T15:20:59.519Z,25.14
2019-06-20T15:23:28.075Z,24.96
2019-06-20T15:25:56.507Z,24.90
2019-06-20T15:28:24.960Z,24.68
2019-06-20T15:30:54.775Z,24.67
2019-06-20T15:33:22.623Z,24.42
2019-06-20T15:35:52.981Z,24.92
2019-06-20T15:38:21.194Z,24.25
2019-06-20T15:40:50.336Z,24.09
2019-06-20T15:43:20.052Z,23.76
2019-06-20T15:45:50.228Z,23.53
2019-06-20T15:48:18.658Z,23.20
2019-06-20T15:50:47.102Z,22.97
2019-06-20T15:53:15.537Z,22.77
2019-06-20T15:55:43.989Z,22.73
2019-06-20T15:58:12.432Z,22.63
2019-06-20T16:00:40.859Z,22.66
2019-06-20T16:03:11.333Z,22.74
2019-06-20T16:05:40.631Z,22.81
2019-06-20T16:08:09.146Z,22.95
2019-06-20T16:10:37.621Z,23.15
2019-06-20T16:13:06.121Z,23.38
2019-06-20T16:15:34.548Z,23.49
2019-06-20T16:18:03.111Z,23.68
2019-06-20T16:20:31.551Z,23.88
2019-06-20T16:23:00.075Z,24.10
2019-06-20T16:25:28.511Z,24.28
2019-06-20T16:27:56.936Z,24.43
2019-06-20T16:30:25.444Z,24.56
2019-06-20T16:32:53.904Z,24.78
2019-06-20T16:35:22.501Z,25.00
2019-06-20T16:37:51.071Z,25.06
2019-06-20T16:40:22.637Z,25.22
2019-06-20T16:42:51.097Z,25.36
2019-06-20T16:45:20.121Z,25.41
2019-06-20T16:47:48.669Z,25.63
2019-06-20T16:50:17.158Z,25.74
2019-06-20T16:52:45.627Z,25.75
2019-06-20T16:55:14.502Z,25.74
2019-06-20T16:57:42.942Z,25.84
2019-06-20T17:00:12.324Z,25.89
2019-06-20T17:02:40.887Z,25.86
2019-06-20T17:05:09.757Z,25.97
2019-06-20T17:07:38.229Z,26.05
2019-06-20T17:10:07.104Z,26.09
2019-06-20T17:12:35.533Z,26.17
2019-06-20T17:15:05.200Z,26.24
2019-06-20T17:17:33.653Z,26.24
2019-06-20T17:20:02.253Z,26.15
2019-06-20T17:22:30.727Z,26.26
2019-06-20T17:24:59.226Z,26.21
2019-06-20T17:27:27.694Z,26.26
2019-06-20T17:29:56.128Z,26.22
2019-06-20T17:32:24.557Z,26.08
2019-06-20T17:34:53.001Z,26.06
2019-06-20T17:37:21.433Z,26.00
2019-06-20T17:39:49.859Z,25.95
2019-06-20T17:42:18.297Z,25.86
2019-06-20T17:44:46.744Z,25.82
2019-06-20T17:47:15.169Z,25.73
2019-06-20T17:49:43.658Z,25.74
2019-06-20T17:52:12.083Z,25.73
2019-06-20T17:54:40.534Z,25.77
2019-06-20T17:57:08.968Z,25.78
2019-06-20T17:59:37.404Z,25.85
2019-06-20T18:02:06.016Z,25.87
2019-06-20T18:04:34.529Z,25.82
2019-06-20T18:07:02.980Z,25.81
2019-06-20T18:09:31.409Z,25.72
2019-06-20T18:11:59.879Z,25.58
2019-06-20T18:14:28.349Z,25.40
2019-06-20T18:16:56.796Z,25.19
2019-06-20T18:19:25.226Z,24.93
2019-06-20T18:21:53.656Z,24.70
2019-06-20T18:24:22.091Z,24.49
2019-06-20T18:26:50.531Z,24.26
2019-06-20T18:29:18.995Z,24.01
2019-06-20T18:31:47.419Z,23.85
2019-06-20T18:34:29.073Z,23.58
2019-06-20T18:36:45.278Z,23.40
2019-06-20T18:39:13.721Z,23.80
2019-06-20T18:41:42.160Z,23.04
2019-06-20T18:44:10.598Z,22.77
2019-06-20T18:46:39.060Z,22.61
2019-06-20T18:49:07.523Z,22.41
2019-06-20T18:51:35.970Z,22.29
2019-06-20T18:54:04.656Z,22.16
2019-06-20T18:56:33.324Z,22.06
2019-06-20T18:59:01.762Z,21.96
2019-06-20T19:01:30.320Z,21.87
2019-06-20T19:03:58.750Z,21.83
2019-06-20T19:06:36.097Z,21.78
2019-06-20T19:08:57.354Z,21.71
2019-06-20T19:11:25.775Z,21.71
2019-06-20T19:13:54.256Z,21.67
2019-06-20T19:16:22.709Z,21.65
2019-06-20T19:18:51.141Z,21.65
2019-06-20T19:21:19.601Z,21.66
2019-06-20T19:23:48.039Z,21.63
2019-06-20T19:26:16.480Z,21.63
2019-06-20T19:28:45.026Z,21.59
2019-06-20T19:31:13.519Z,21.61
2019-06-20T19:33:41.964Z,21.58
2019-06-20T19:36:10.387Z,21.61
2019-06-20T19:38:38.880Z,21.55
2019-06-20T19:41:07.311Z,21.55
2019-06-20T19:43:35.767Z,21.53
2019-06-20T19:46:04.196Z,21.50
2019-06-20T19:48:32.702Z,21.50
2019-06-20T19:51:01.247Z,21.49
2019-06-20T19:53:29.980Z,21.46
2019-06-20T19:55:58.438Z,21.44
2019-06-20T19:58:26.872Z,21.43
2019-06-20T20:00:55.319Z,21.45
2019-06-20T20:03:23.764Z,21.37
2019-06-20T20:05:52.189Z,21.34
2019-06-20T20:08:20.849Z,21.26
2019-06-20T20:10:50.129Z,21.24
2019-06-20T20:13:18.912Z,21.18
2019-06-20T20:15:47.695Z,21.19
2019-06-20T20:18:16.299Z,21.14
2019-06-20T20:20:47.576Z,21.11
2019-06-20T20:23:16.709Z,21.04
2019-06-20T20:25:45.382Z,20.77
2019-06-20T20:28:13.884Z,20.93
2019-06-20T20:30:42.354Z,20.86
2019-06-20T20:33:10.844Z,20.84
2019-06-20T20:35:39.314Z,20.81
2019-06-20T20:38:07.813Z,20.74
2019-06-20T20:40:36.244Z,20.68
2019-06-20T20:43:05.021Z,20.64
2019-06-20T20:45:33.482Z,20.52
2019-06-20T20:48:02.091Z,20.45
2019-06-20T20:50:30.516Z,20.44
2019-06-20T20:52:59.030Z,20.35
2019-06-20T20:55:27.457Z,20.28
2019-06-20T20:57:55.888Z,20.21
2019-06-20T21:00:33.274Z,20.15
2019-06-20T21:03:01.713Z,20.08
2019-06-20T21:05:30.155Z,20.01
2019-06-20T21:07:58.599Z,19.98
2019-06-20T21:10:27.053Z,19.92
2019-06-20T21:12:55.494Z,19.88
2019-06-20T21:15:25.074Z,19.80
2019-06-20T21:17:55.692Z,19.74
2019-06-20T21:20:23.969Z,19.74
2019-06-20T21:22:52.434Z,19.71
2019-06-20T21:25:21.135Z,19.65
2019-06-20T21:27:49.599Z,19.61
2019-06-20T21:30:18.349Z,19.55
2019-06-20T21:32:46.784Z,19.49
2019-06-20T21:35:15.659Z,19.44
2019-06-20T21:37:44.095Z,19.35
2019-06-20T21:40:12.714Z,19.29
2019-06-20T21:42:41.143Z,19.20
2019-06-20T21:45:10.501Z,19.14
2019-06-20T21:47:38.954Z,19.04
2019-06-20T21:50:08.036Z,19.01
2019-06-20T21:52:36.567Z,18.97
2019-06-20T21:55:08.491Z,18.87
2019-06-20T21:57:36.919Z,18.81
2019-06-20T22:00:21.099Z,18.75
2019-06-20T22:02:49.528Z,18.74
2019-06-20T22:05:18.115Z,18.68
2019-06-20T22:07:46.554Z,18.63
2019-06-20T22:10:15.624Z,18.61
2019-06-20T22:12:44.064Z,18.58
2019-06-20T22:15:13.052Z,18.40
2019-06-20T22:17:41.482Z,18.56
2019-06-20T22:20:10.250Z,18.55
2019-06-20T22:22:38.684Z,18.55
2019-06-20T22:25:09.832Z,18.51
2019-06-20T22:27:38.265Z,18.48
2019-06-20T22:30:14.697Z,18.46
2019-06-20T22:32:43.135Z,18.44
2019-06-20T22:35:11.901Z,18.41
2019-06-20T22:37:40.349Z,18.38
2019-06-20T22:40:09.807Z,18.35
2019-06-20T22:42:38.494Z,18.35
2019-06-20T22:45:07.582Z,18.35
2019-06-20T22:47:36.022Z,18.30
2019-06-20T22:50:07.498Z,18.28
2019-06-20T22:52:35.967Z,18.27
2019-06-20T22:55:06.982Z,18.25
2019-06-20T22:57:35.415Z,18.24
2019-06-20T23:00:08.953Z,18.22
2019-06-20T23:02:37.389Z,18.22
2019-06-20T23:05:09.928Z,18.18
2019-06-20T23:07:38.414Z,18.15
2019-06-20T23:10:11.372Z,18.14
2019-06-20T23:12:39.926Z,18.12
2019-06-20T23:15:09.005Z,18.07
2019-06-20T23:17:37.488Z,18.04
2019-06-20T23:20:07.217Z,18.05
2019-06-20T23:22:35.667Z,17.96
2019-06-20T23:25:06.985Z,17.93
2019-06-20T23:27:35.411Z,17.90
2019-06-20T23:30:09.190Z,17.88
2019-06-20T23:32:37.656Z,17.82
2019-06-20T23:35:07.041Z,17.83
2019-06-20T23:37:35.547Z,17.79
2019-06-20T23:40:08.307Z,17.76
2019-06-20T23:42:36.834Z,17.71
2019-06-20T23:45:07.735Z,17.66
2019-06-20T23:47:36.412Z,17.62
2019-06-20T23:50:09.536Z,17.57
2019-06-20T23:52:54.703Z,17.54
2019-06-20T23:55:23.154Z,17.50
2019-06-20T23:57:51.609Z,17.46
